Aérodrome :
LOGIN :

S'inscrire | Disclaimer

   EN    FR    IT 

 










Légende :    VFR   VFR Marginal   IFR   IFR Intensif   IFR Très Intensif
Visi : 
Plafond : 
>= 8 km
>= 3000ft
5 à 8 km
1000 à 3000 ft
1500m à 5 km
500 à 1000 ft
800 à 1500m
200 à 500 ft
< 800m
< 200 ft
Symboles :   Orages  Brouillard  Fortes neiges  Fortes précipitations  Vent > 20 kt
SIGMETs :   Divers  Orages  Givrage  Turbulence  Onde Orograph.  Cendres Volcan.







- Altitude de l'aérodrome : 302 ft
- Code IATA : CGN


EDDK - Cologne Bonn

DERNIER METAR :
  • 011720Z 16006KT 9999 -RA FEW027 SCT035 BKN060 06/04 Q1002 NOSIG

METARs EXPIRÉS :
  • 011650Z 18004KT 160V230 9999 FEW027 SCT035 BKN060 07/04 Q1002 NOSIG
  • 011620Z 21007KT 9999 FEW027 SCT037 BKN055 07/03 Q1002 NOSIG
  • 011550Z 21007KT 9999 -RA FEW011 SCT031 BKN041 08/04 Q1003 NOSIG
  • 011520Z 23011KT 200V260 9999 -RA FEW017 BKN028 BKN033 08/04 Q1003 NOSIG
  • 011450Z 22011KT 9999 -RA FEW017 SCT036 BKN048 08/03 Q1003 NOSIG

TAF TAF EDDK
Valide du 01 à 18h jusqu'au 03 à 00h UTC


011700Z 0118/0224 18008KT 9999 SCT025 BKN035
BECMG 0200/0203 24015KT
BECMG 0203/0206 25015G30KT
TEMPO 0210/0214 25020G40KT
BECMG 0215/0218 25010KT
Pas de NOTAMs connus pour ce terrain.



MET'MAP, la Météo Aéronautique d'un coup d'oeil ! - Copyright ORBIFLY Décembre 2007 - Disclaimer

ORBIFLY MET'MAP TEAM :

Programmation & Développement : Alexandra Zaïnal
Conception & Développement : Baudouin d'Aumeries
Co-Programmation & Développement : Marc-Olivier Méhu
Soutien technique & logistique : Manuel Goepfert

Contact : metmap@orbifly.com




SOURCES & CREDITS :

   NOAA